Terminal Aerodrome Forecast
Issued by NWS Cleveland, OH

Home | Current Version | Previous Version | Text Only | Print | Product List | Glossary On
Versions: 1 2 3 4 5 6 7 8 9 10 11 12 13 14 15 16 17 18 19
798
FTUS41 KCLE 010800 AAA
TAFCAK
TAF AMD
KCAK 010800Z 0108/0206 13007KT P6SM VCSH BKN012 OVC050
      TEMPO 0108/0112 5SM -SHRA BKN008
     FM011200 14006KT 5SM BR VCSH OVC011
      TEMPO 0112/0115 6SM BR BKN008
     FM011500 17007KT P6SM VCSH BKN025
     FM011800 19008KT P6SM VCSH BKN040=

USA.gov is the U.S. government's official web portal to all federal, state and local government web resources and services.